Capt. Harry — WDC3690 — position and weather

sailwx.info

Track history (hours):
 
Tides and Currents Weather Stations Pressure Air Temp Water Temp Dewpoint Dewpoint Depression Visibility Wind Speed Wind Dir Waves Ship Positions

Capt. Harry

Owner: Wilmington Tug, Inc., New Castle, DE. More information available from US FCC via Universal Licensing System and Coast Guard Vessel Documentation Center.

Last reported at 2016-Dec-11 01:33 UTC. Time now 2016-Dec-11 02:11 UTC.
Position N 39°49' W 075°24'.

Type: Tug. MMSI: 367012530.

Date/timePositionNaut miles runAvg speedWind from/ knotsBaromVisibWave heightAir tempDewpointWater temp
2016-Dec-11 01:33N 39°49' W 075°24'0 0.1
2016-Dec-11 00:33N 39°49' W 075°24'6 5.8
2016-Dec-10 23:33N 39°45' W 075°30'2 1.9
2016-Dec-10 22:33N 39°43' W 075°31'0 0.0
2016-Dec-10 21:33N 39°43' W 075°31'0 0.0
2016-Dec-10 20:33N 39°43' W 075°31'0 0.2
2016-Dec-10 19:33N 39°43' W 075°31'0 0.2
2016-Dec-10 18:33N 39°43' W 075°31'0 0.0
2016-Dec-10 17:33N 39°43' W 075°31'0 0.0
2016-Dec-10 16:33N 39°43' W 075°31'0 0.0
2016-Dec-10 15:33N 39°43' W 075°31'0 0.0
2016-Dec-10 14:33N 39°43' W 075°31'0 0.0
2016-Dec-10 13:33N 39°43' W 075°31'0 0.0
2016-Dec-10 12:33N 39°43' W 075°31'0 0.0
2016-Dec-10 11:33N 39°43' W 075°31'8 7.6
2016-Dec-10 10:33N 39°49' W 075°24'1 1.2
2016-Dec-10 09:33N 39°48' W 075°26'0 0.0
2016-Dec-10 08:33N 39°48' W 075°26'0 0.0
2016-Dec-10 07:33N 39°48' W 075°26'0 0.0
2016-Dec-10 06:33N 39°48' W 075°26'1 0.8
2016-Dec-10 05:33N 39°48' W 075°25'0 0.4
2016-Dec-10 04:33N 39°48' W 075°25'0 0.5
2016-Dec-10 03:33N 39°48' W 075°26'0 0.0
2016-Dec-10 02:33N 39°48' W 075°26'0 0.0
2016-Dec-10 01:33N 39°48' W 075°26'0 0.0
2016-Dec-10 00:33N 39°48' W 075°26'1 1.3
2016-Dec-09 23:33N 39°49' W 075°24'0 0.1
2016-Dec-09 22:33N 39°49' W 075°24'1 1.2
2016-Dec-09 21:33N 39°48' W 075°26'6 6.3
2016-Dec-09 20:33N 39°43' W 075°31'0 0.2
2016-Dec-09 19:33N 39°43' W 075°31'0 0.0
2016-Dec-09 18:33N 39°43' W 075°31'0 0.0
2016-Dec-09 17:33N 39°43' W 075°31'0 0.0
2016-Dec-09 16:16N 39°43' W 075°31'0 0.0
2016-Dec-09 15:33N 39°43' W 075°31'0 0.0
2016-Dec-09 14:33N 39°43' W 075°31'0 0.0
2016-Dec-09 13:33N 39°43' W 075°31'0 0.0
2016-Dec-09 12:33N 39°43' W 075°31'0 0.0
2016-Dec-09 11:33N 39°43' W 075°31'0 0.0
2016-Dec-09 10:33N 39°43' W 075°31'0 0.0
2016-Dec-09 09:33N 39°43' W 075°31'0 0.0
2016-Dec-09 08:33N 39°43' W 075°31'0 0.0
2016-Dec-09 07:33N 39°43' W 075°31'0 0.4
2016-Dec-09 06:33N 39°43' W 075°31'0 0.4
2016-Dec-09 05:33N 39°43' W 075°31'0 0.0
2016-Dec-09 04:33N 39°43' W 075°31'0 0.0
2016-Dec-09 03:33N 39°43' W 075°31'1 0.6
2016-Dec-09 02:33N 39°43' W 075°30'1010.3
2016-Dec-09 01:33N 39°51' W 075°21'9 8.7
2016-Dec-09 00:33N 39°53' W 075°10'3 3.5
2016-Dec-08 23:33N 39°56' W 075°08'4 3.8
2016-Dec-08 22:33N 39°53' W 075°11'0 0.0
2016-Dec-08 21:33N 39°53' W 075°11'0 0.0
2016-Dec-08 20:33N 39°53' W 075°11'0 0.0
2016-Dec-08 19:33N 39°53' W 075°11'0 0.0
2016-Dec-08 18:33N 39°53' W 075°11'0 0.0
2016-Dec-08 17:33N 39°53' W 075°11'0 0.0
2016-Dec-08 16:33N 39°53' W 075°11'0 0.0
2016-Dec-08 15:33N 39°53' W 075°11'0 0.0
2016-Dec-08 14:33N 39°53' W 075°11'0 0.0
2016-Dec-08 13:33N 39°53' W 075°11'0 0.0
2016-Dec-08 12:33N 39°53' W 075°11'0 0.0
2016-Dec-08 11:33N 39°53' W 075°11'0 0.0
2016-Dec-08 10:33N 39°53' W 075°11'0 0.0
2016-Dec-08 09:33N 39°53' W 075°11'1 1.2
2016-Dec-08 08:33N 39°53' W 075°10'3 3.3
2016-Dec-08 07:33N 39°56' W 075°08'0 0.1
2016-Dec-08 06:33N 39°56' W 075°08'0 0.0
2016-Dec-08 05:33N 39°56' W 075°08'3 3.0
2016-Dec-08 04:33N 39°53' W 075°09'8 8.3
2016-Dec-08 03:33N 39°51' W 075°19'5 5.3
2016-Dec-08 02:33N 39°48' W 075°25'1 0.7
2016-Dec-08 01:33N 39°49' W 075°24'6 5.8
2016-Dec-08 00:33N 39°45' W 075°30'2 1.9
2016-Dec-07 23:33N 39°43' W 075°31'0 0.0
2016-Dec-07 22:33N 39°43' W 075°31'0 0.0
2016-Dec-07 21:33N 39°43' W 075°31'0 0.0
2016-Dec-07 20:33N 39°43' W 075°31'0 0.0
2016-Dec-07 19:33N 39°43' W 075°31'0 0.2
2016-Dec-07 18:33N 39°43' W 075°31'0 0.0
2016-Dec-07 17:33N 39°43' W 075°31'0 0.2
2016-Dec-07 16:33N 39°43' W 075°31'0 0.0
2016-Dec-07 15:34N 39°43' W 075°31'0 0.2
2016-Dec-07 14:33N 39°43' W 075°31'0 0.2
2016-Dec-07 13:33N 39°43' W 075°31'0 0.0
2016-Dec-07 12:33N 39°43' W 075°31'0 0.0
2016-Dec-07 11:33N 39°43' W 075°31'0 0.0
2016-Dec-07 10:33N 39°43' W 075°31'0 0.0
2016-Dec-07 09:33N 39°43' W 075°31'0 0.0
2016-Dec-07 08:33N 39°43' W 075°31'0 0.0
2016-Dec-07 07:33N 39°43' W 075°31'0 0.0
2016-Dec-07 06:33N 39°43' W 075°31'0 0.0
2016-Dec-07 05:33N 39°43' W 075°31'0 0.0
2016-Dec-07 04:33N 39°43' W 075°31'0 0.0
2016-Dec-07 03:34N 39°43' W 075°31'0 0.0
2016-Dec-07 02:34N 39°43' W 075°31'9 8.6
2016-Dec-07 01:34N 39°35' W 075°36'1 0.7
2016-Dec-07 00:34N 39°35' W 075°35'8 8.4
2016-Dec-06 23:33N 39°43' W 075°31'8 7.8
2016-Dec-06 22:33N 39°49' W 075°24'0 0.0
2016-Dec-06 21:33N 39°49' W 075°24'0 0.3
2016-Dec-06 20:33N 39°49' W 075°24'7 3.6
2016-Dec-06 18:34N 39°43' W 075°30'1 0.4
2016-Dec-06 16:33N 39°43' W 075°31'1 0.8
2016-Dec-06 15:33N 39°42' W 075°31'1 0.8
2016-Dec-06 14:34N 39°43' W 075°31'0 0.0
2016-Dec-06 13:33N 39°43' W 075°31'0 0.0
2016-Dec-06 12:33N 39°43' W 075°31'0 0.0
2016-Dec-06 11:33N 39°43' W 075°31'0 0.0
2016-Dec-06 10:33N 39°43' W 075°31'0 0.0
2016-Dec-06 09:33N 39°43' W 075°31'0 0.0
2016-Dec-06 08:33N 39°43' W 075°31'0 0.0
2016-Dec-06 07:33N 39°43' W 075°31'0 0.0
2016-Dec-06 06:33N 39°43' W 075°31'2 2.1
2016-Dec-06 05:33N 39°41' W 075°31'1111.5
2016-Dec-06 04:34N 39°30' W 075°33'1212.0
2016-Dec-06 03:33N 39°20' W 075°25'1211.8
2016-Dec-06 02:34N 39°10' W 075°16'1111.0
2016-Dec-06 01:33N 38°59' W 075°13'4 1.8
2016-Dec-05 23:33N 39°03' W 075°13'1312.7
2016-Dec-05 22:33N 39°15' W 075°19'1414.2
2016-Dec-05 21:34N 39°25' W 075°31'1211.6
2016-Dec-05 20:34N 39°37' W 075°35'7 6.9
2016-Dec-05 19:34N 39°43' W 075°31'0 0.0
2016-Dec-05 18:34N 39°43' W 075°31'0 0.0
2016-Dec-05 17:33N 39°43' W 075°31'0 0.0
2016-Dec-05 16:33N 39°43' W 075°31'1 1.1
2016-Dec-05 15:34N 39°42' W 075°31'1 1.1
2016-Dec-05 14:33N 39°43' W 075°31'0 0.0
2016-Dec-05 13:33N 39°43' W 075°31'0 0.0
2016-Dec-05 12:33N 39°43' W 075°31'0 0.0
2016-Dec-05 11:33N 39°43' W 075°31'6 6.1
2016-Dec-05 10:33N 39°38' W 075°36'3 3.0
2016-Dec-05 09:33N 39°35' W 075°35'0 0.1
2016-Dec-05 08:33N 39°35' W 075°35'0 0.0
2016-Dec-05 07:33N 39°35' W 075°35'0 0.0
2016-Dec-05 06:33N 39°35' W 075°35'0 0.0
2016-Dec-05 05:33N 39°35' W 075°35'0 0.0
2016-Dec-05 04:33N 39°35' W 075°35'0 0.0
2016-Dec-05 03:33N 39°35' W 075°35'3 3.5
2016-Dec-05 02:33N 39°32' W 075°33'1111.0
2016-Dec-05 01:34N 39°43' W 075°31'0 0.4
2016-Dec-05 00:33N 39°43' W 075°31'0 0.0
2016-Dec-04 23:33N 39°43' W 075°31'0 0.0
2016-Dec-04 22:33N 39°43' W 075°31'0 0.0
2016-Dec-04 21:33N 39°43' W 075°31'0 0.0
2016-Dec-04 20:33N 39°43' W 075°31'0 0.0
2016-Dec-04 19:33N 39°43' W 075°31'0 0.0
2016-Dec-04 18:33N 39°43' W 075°31'0 0.0
2016-Dec-04 17:33N 39°43' W 075°31'0 0.0
2016-Dec-04 16:33N 39°43' W 075°31'0 0.0
2016-Dec-04 15:33N 39°43' W 075°31'0 0.0
2016-Dec-04 14:33N 39°43' W 075°31'0 0.0
2016-Dec-04 13:33N 39°43' W 075°31'0 0.0
2016-Dec-04 12:33N 39°43' W 075°31'0 0.0
2016-Dec-04 11:33N 39°43' W 075°31'1 0.6
2016-Dec-04 10:33N 39°42' W 075°31'8 8.2
2016-Dec-04 09:33N 39°35' W 075°35'0 0.1
2016-Dec-04 08:33N 39°35' W 075°35'0 0.1
2016-Dec-04 07:33N 39°35' W 075°35'0 0.0
2016-Dec-04 06:33N 39°35' W 075°35'0 0.0
2016-Dec-04 05:33N 39°35' W 075°35'0 0.0
2016-Dec-04 04:33N 39°35' W 075°35'0 0.0
2016-Dec-04 03:33N 39°35' W 075°35'0 0.0
2016-Dec-04 02:33N 39°35' W 075°35'0 0.1
2016-Dec-04 01:33N 39°35' W 075°35'9 8.7
2016-Dec-04 00:33N 39°43' W 075°31'0 0.3
2016-Dec-03 23:33N 39°43' W 075°31'0 0.0
2016-Dec-03 22:33N 39°43' W 075°31'0 0.0
2016-Dec-03 21:33N 39°43' W 075°31'0 0.0
2016-Dec-03 20:33N 39°43' W 075°31'0 0.0
2016-Dec-03 19:33N 39°43' W 075°31'0 0.0
2016-Dec-03 18:33N 39°43' W 075°31'0 0.0
2016-Dec-03 17:33N 39°43' W 075°31'0 0.0
2016-Dec-03 16:33N 39°43' W 075°31'0 0.0
2016-Dec-03 15:33N 39°43' W 075°31'0 0.0
2016-Dec-03 14:33N 39°43' W 075°31'0 0.0
2016-Dec-03 13:33N 39°43' W 075°31'0 0.1
2016-Dec-03 12:33N 39°43' W 075°31'0 0.0
2016-Dec-03 11:33N 39°43' W 075°31'0 0.0
2016-Dec-03 10:33N 39°43' W 075°31'0 0.0
2016-Dec-03 09:33N 39°43' W 075°31'0 0.0
2016-Dec-03 08:33N 39°43' W 075°31'0 0.0
2016-Dec-03 07:33N 39°43' W 075°31'0 0.0
2016-Dec-03 06:33N 39°43' W 075°31'0 0.0
2016-Dec-03 05:33N 39°43' W 075°31'0 0.0
2016-Dec-03 04:33N 39°43' W 075°31'4 3.9
2016-Dec-03 03:33N 39°39' W 075°33'5 4.8
2016-Dec-03 02:33N 39°35' W 075°35'0 0.1
2016-Dec-03 01:33N 39°35' W 075°35'0 0.0
2016-Dec-03 00:33N 39°35' W 075°35'0 0.0
2016-Dec-02 23:33N 39°35' W 075°35'0 0.0
2016-Dec-02 22:33N 39°35' W 075°35'0 0.0
2016-Dec-02 21:33N 39°35' W 075°35'0 0.0
2016-Dec-02 20:33N 39°35' W 075°35'0 0.0
2016-Dec-02 19:33N 39°35' W 075°35'0 0.0
2016-Dec-02 18:33N 39°35' W 075°35'0 0.0
2016-Dec-02 17:33N 39°35' W 075°35'0 0.0
2016-Dec-02 16:33N 39°35' W 075°35'0 0.0
2016-Dec-02 15:33N 39°35' W 075°35'0 0.0
2016-Dec-02 14:33N 39°35' W 075°35'0 0.0
2016-Dec-02 13:33N 39°35' W 075°35'0 0.0
2016-Dec-02 12:33N 39°35' W 075°35'0 0.0
2016-Dec-02 11:33N 39°35' W 075°35'0 0.0
2016-Dec-02 10:33N 39°35' W 075°35'0 0.0
2016-Dec-02 09:33N 39°35' W 075°35'0 0.1
2016-Dec-02 08:33N 39°35' W 075°35'0 0.1
2016-Dec-02 07:33N 39°35' W 075°35'0 0.3
2016-Dec-02 06:33N 39°35' W 075°36'0 0.0
2016-Dec-02 05:34N 39°35' W 075°36'0 0.0
2016-Dec-02 04:33N 39°35' W 075°36'0 0.0
2016-Dec-02 03:33N 39°35' W 075°36'0 0.0
2016-Dec-02 02:33N 39°35' W 075°36'0 0.0
2016-Dec-02 01:33N 39°35' W 075°36'0 0.0
2016-Dec-02 00:33N 39°35' W 075°36'0 0.0
2016-Dec-01 23:33N 39°35' W 075°36'0 0.0
2016-Dec-01 22:33N 39°35' W 075°36'0 0.0
2016-Dec-01 21:33N 39°35' W 075°36'0 0.0
2016-Dec-01 20:33N 39°35' W 075°36'6 5.9
2016-Dec-01 19:33N 39°30' W 075°33'1211.5
2016-Dec-01 18:33N 39°20' W 075°25'1212.1
2016-Dec-01 17:34N 39°10' W 075°16'7 2.0
2016-Dec-01 14:04N 39°04' W 075°13'1010.4
2016-Dec-01 13:05N 39°13' W 075°18'612.4
2016-Dec-01 12:33N 39°18' W 075°23'1313.3
2016-Dec-01 11:33N 39°29' W 075°34'6 6.4
2016-Dec-01 10:33N 39°35' W 075°35'0 0.0
2016-Dec-01 09:33N 39°35' W 075°35'0 0.2
2016-Dec-01 08:33N 39°35' W 075°36'0 0.0
2016-Dec-01 07:33N 39°35' W 075°36'0 0.3
2016-Dec-01 06:33N 39°35' W 075°35'8 7.8
2016-Dec-01 05:33N 39°42' W 075°31'8 8.3
2016-Dec-01 04:33N 39°49' W 075°24'0 0.1
2016-Dec-01 03:33N 39°49' W 075°24'1 1.2
2016-Dec-01 02:33N 39°48' W 075°26'10 9.7
2016-Dec-01 01:34N 39°52' W 075°14'  
Track history (hours):
 
Tides and Currents Weather Stations Pressure Air Temp Water Temp Dewpoint Dewpoint Depression Visibility Wind Speed Wind Dir Waves Ship Positions

Capt. Harry

Owner: Wilmington Tug, Inc., New Castle, DE. More information available from US FCC via Universal Licensing System and Coast Guard Vessel Documentation Center.

Last reported at 2016-Dec-11 01:33 UTC. Time now 2016-Dec-11 02:11 UTC.
Position N 39°49' W 075°24'.

Type: Tug. MMSI: 367012530.

Date/timePositionNaut miles runAvg speedWind from/ knotsBaromVisibWave heightAir tempDewpointWater temp
2016-Dec-11 01:33N 39°49' W 075°24'0 0.1
2016-Dec-11 00:33N 39°49' W 075°24'6 5.8
2016-Dec-10 23:33N 39°45' W 075°30'2 1.9
2016-Dec-10 22:33N 39°43' W 075°31'0 0.0
2016-Dec-10 21:33N 39°43' W 075°31'0 0.0
2016-Dec-10 20:33N 39°43' W 075°31'0 0.2
2016-Dec-10 19:33N 39°43' W 075°31'0 0.2
2016-Dec-10 18:33N 39°43' W 075°31'0 0.0
2016-Dec-10 17:33N 39°43' W 075°31'0 0.0
2016-Dec-10 16:33N 39°43' W 075°31'0 0.0
2016-Dec-10 15:33N 39°43' W 075°31'0 0.0
2016-Dec-10 14:33N 39°43' W 075°31'0 0.0
2016-Dec-10 13:33N 39°43' W 075°31'0 0.0
2016-Dec-10 12:33N 39°43' W 075°31'0 0.0
2016-Dec-10 11:33N 39°43' W 075°31'8 7.6
2016-Dec-10 10:33N 39°49' W 075°24'1 1.2
2016-Dec-10 09:33N 39°48' W 075°26'0 0.0
2016-Dec-10 08:33N 39°48' W 075°26'0 0.0
2016-Dec-10 07:33N 39°48' W 075°26'0 0.0
2016-Dec-10 06:33N 39°48' W 075°26'1 0.8
2016-Dec-10 05:33N 39°48' W 075°25'0 0.4
2016-Dec-10 04:33N 39°48' W 075°25'0 0.5
2016-Dec-10 03:33N 39°48' W 075°26'0 0.0
2016-Dec-10 02:33N 39°48' W 075°26'0 0.0
2016-Dec-10 01:33N 39°48' W 075°26'0 0.0
2016-Dec-10 00:33N 39°48' W 075°26'1 1.3
2016-Dec-09 23:33N 39°49' W 075°24'0 0.1
2016-Dec-09 22:33N 39°49' W 075°24'1 1.2
2016-Dec-09 21:33N 39°48' W 075°26'6 6.3
2016-Dec-09 20:33N 39°43' W 075°31'0 0.2
2016-Dec-09 19:33N 39°43' W 075°31'0 0.0
2016-Dec-09 18:33N 39°43' W 075°31'0 0.0
2016-Dec-09 17:33N 39°43' W 075°31'0 0.0
2016-Dec-09 16:16N 39°43' W 075°31'0 0.0
2016-Dec-09 15:33N 39°43' W 075°31'0 0.0
2016-Dec-09 14:33N 39°43' W 075°31'0 0.0
2016-Dec-09 13:33N 39°43' W 075°31'0 0.0
2016-Dec-09 12:33N 39°43' W 075°31'0 0.0
2016-Dec-09 11:33N 39°43' W 075°31'0 0.0
2016-Dec-09 10:33N 39°43' W 075°31'0 0.0
2016-Dec-09 09:33N 39°43' W 075°31'0 0.0
2016-Dec-09 08:33N 39°43' W 075°31'0 0.0
2016-Dec-09 07:33N 39°43' W 075°31'0 0.4
2016-Dec-09 06:33N 39°43' W 075°31'0 0.4
2016-Dec-09 05:33N 39°43' W 075°31'0 0.0
2016-Dec-09 04:33N 39°43' W 075°31'0 0.0
2016-Dec-09 03:33N 39°43' W 075°31'1 0.6
2016-Dec-09 02:33N 39°43' W 075°30'1010.3
2016-Dec-09 01:33N 39°51' W 075°21'9 8.7
2016-Dec-09 00:33N 39°53' W 075°10'3 3.5
2016-Dec-08 23:33N 39°56' W 075°08'4 3.8
2016-Dec-08 22:33N 39°53' W 075°11'0 0.0
2016-Dec-08 21:33N 39°53' W 075°11'0 0.0
2016-Dec-08 20:33N 39°53' W 075°11'0 0.0
2016-Dec-08 19:33N 39°53' W 075°11'0 0.0
2016-Dec-08 18:33N 39°53' W 075°11'0 0.0
2016-Dec-08 17:33N 39°53' W 075°11'0 0.0
2016-Dec-08 16:33N 39°53' W 075°11'0 0.0
2016-Dec-08 15:33N 39°53' W 075°11'0 0.0
2016-Dec-08 14:33N 39°53' W 075°11'0 0.0
2016-Dec-08 13:33N 39°53' W 075°11'0 0.0
2016-Dec-08 12:33N 39°53' W 075°11'0 0.0
2016-Dec-08 11:33N 39°53' W 075°11'0 0.0
2016-Dec-08 10:33N 39°53' W 075°11'0 0.0
2016-Dec-08 09:33N 39°53' W 075°11'1 1.2
2016-Dec-08 08:33N 39°53' W 075°10'3 3.3
2016-Dec-08 07:33N 39°56' W 075°08'0 0.1
2016-Dec-08 06:33N 39°56' W 075°08'0 0.0
2016-Dec-08 05:33N 39°56' W 075°08'3 3.0
2016-Dec-08 04:33N 39°53' W 075°09'8 8.3
2016-Dec-08 03:33N 39°51' W 075°19'5 5.3
2016-Dec-08 02:33N 39°48' W 075°25'1 0.7
2016-Dec-08 01:33N 39°49' W 075°24'6 5.8
2016-Dec-08 00:33N 39°45' W 075°30'2 1.9
2016-Dec-07 23:33N 39°43' W 075°31'0 0.0
2016-Dec-07 22:33N 39°43' W 075°31'0 0.0
2016-Dec-07 21:33N 39°43' W 075°31'0 0.0
2016-Dec-07 20:33N 39°43' W 075°31'0 0.0
2016-Dec-07 19:33N 39°43' W 075°31'0 0.2
2016-Dec-07 18:33N 39°43' W 075°31'0 0.0
2016-Dec-07 17:33N 39°43' W 075°31'0 0.2
2016-Dec-07 16:33N 39°43' W 075°31'0 0.0
2016-Dec-07 15:34N 39°43' W 075°31'0 0.2
2016-Dec-07 14:33N 39°43' W 075°31'0 0.2
2016-Dec-07 13:33N 39°43' W 075°31'0 0.0
2016-Dec-07 12:33N 39°43' W 075°31'0 0.0
2016-Dec-07 11:33N 39°43' W 075°31'0 0.0
2016-Dec-07 10:33N 39°43' W 075°31'0 0.0
2016-Dec-07 09:33N 39°43' W 075°31'0 0.0
2016-Dec-07 08:33N 39°43' W 075°31'0 0.0
2016-Dec-07 07:33N 39°43' W 075°31'0 0.0
2016-Dec-07 06:33N 39°43' W 075°31'0 0.0
2016-Dec-07 05:33N 39°43' W 075°31'0 0.0
2016-Dec-07 04:33N 39°43' W 075°31'0 0.0
2016-Dec-07 03:34N 39°43' W 075°31'0 0.0
2016-Dec-07 02:34N 39°43' W 075°31'9 8.6
2016-Dec-07 01:34N 39°35' W 075°36'1 0.7
2016-Dec-07 00:34N 39°35' W 075°35'8 8.4
2016-Dec-06 23:33N 39°43' W 075°31'8 7.8
2016-Dec-06 22:33N 39°49' W 075°24'0 0.0
2016-Dec-06 21:33N 39°49' W 075°24'0 0.3
2016-Dec-06 20:33N 39°49' W 075°24'7 3.6
2016-Dec-06 18:34N 39°43' W 075°30'1 0.4
2016-Dec-06 16:33N 39°43' W 075°31'1 0.8
2016-Dec-06 15:33N 39°42' W 075°31'1 0.8
2016-Dec-06 14:34N 39°43' W 075°31'0 0.0
2016-Dec-06 13:33N 39°43' W 075°31'0 0.0
2016-Dec-06 12:33N 39°43' W 075°31'0 0.0
2016-Dec-06 11:33N 39°43' W 075°31'0 0.0
2016-Dec-06 10:33N 39°43' W 075°31'0 0.0
2016-Dec-06 09:33N 39°43' W 075°31'0 0.0
2016-Dec-06 08:33N 39°43' W 075°31'0 0.0
2016-Dec-06 07:33N 39°43' W 075°31'0 0.0
2016-Dec-06 06:33N 39°43' W 075°31'2 2.1
2016-Dec-06 05:33N 39°41' W 075°31'1111.5
2016-Dec-06 04:34N 39°30' W 075°33'1212.0
2016-Dec-06 03:33N 39°20' W 075°25'1211.8
2016-Dec-06 02:34N 39°10' W 075°16'1111.0
2016-Dec-06 01:33N 38°59' W 075°13'4 1.8
2016-Dec-05 23:33N 39°03' W 075°13'1312.7
2016-Dec-05 22:33N 39°15' W 075°19'1414.2
2016-Dec-05 21:34N 39°25' W 075°31'1211.6
2016-Dec-05 20:34N 39°37' W 075°35'7 6.9
2016-Dec-05 19:34N 39°43' W 075°31'0 0.0
2016-Dec-05 18:34N 39°43' W 075°31'0 0.0
2016-Dec-05 17:33N 39°43' W 075°31'0 0.0
2016-Dec-05 16:33N 39°43' W 075°31'1 1.1
2016-Dec-05 15:34N 39°42' W 075°31'1 1.1
2016-Dec-05 14:33N 39°43' W 075°31'0 0.0
2016-Dec-05 13:33N 39°43' W 075°31'0 0.0
2016-Dec-05 12:33N 39°43' W 075°31'0 0.0
2016-Dec-05 11:33N 39°43' W 075°31'6 6.1
2016-Dec-05 10:33N 39°38' W 075°36'3 3.0
2016-Dec-05 09:33N 39°35' W 075°35'0 0.1
2016-Dec-05 08:33N 39°35' W 075°35'0 0.0
2016-Dec-05 07:33N 39°35' W 075°35'0 0.0
2016-Dec-05 06:33N 39°35' W 075°35'0 0.0
2016-Dec-05 05:33N 39°35' W 075°35'0 0.0
2016-Dec-05 04:33N 39°35' W 075°35'0 0.0
2016-Dec-05 03:33N 39°35' W 075°35'3 3.5
2016-Dec-05 02:33N 39°32' W 075°33'1111.0
2016-Dec-05 01:34N 39°43' W 075°31'0 0.4
2016-Dec-05 00:33N 39°43' W 075°31'0 0.0
2016-Dec-04 23:33N 39°43' W 075°31'0 0.0
2016-Dec-04 22:33N 39°43' W 075°31'0 0.0
2016-Dec-04 21:33N 39°43' W 075°31'0 0.0
2016-Dec-04 20:33N 39°43' W 075°31'0 0.0
2016-Dec-04 19:33N 39°43' W 075°31'0 0.0
2016-Dec-04 18:33N 39°43' W 075°31'0 0.0
2016-Dec-04 17:33N 39°43' W 075°31'0 0.0
2016-Dec-04 16:33N 39°43' W 075°31'0 0.0
2016-Dec-04 15:33N 39°43' W 075°31'0 0.0
2016-Dec-04 14:33N 39°43' W 075°31'0 0.0
2016-Dec-04 13:33N 39°43' W 075°31'0 0.0
2016-Dec-04 12:33N 39°43' W 075°31'0 0.0
2016-Dec-04 11:33N 39°43' W 075°31'1 0.6
2016-Dec-04 10:33N 39°42' W 075°31'8 8.2
2016-Dec-04 09:33N 39°35' W 075°35'0 0.1
2016-Dec-04 08:33N 39°35' W 075°35'0 0.1
2016-Dec-04 07:33N 39°35' W 075°35'0 0.0
2016-Dec-04 06:33N 39°35' W 075°35'0 0.0
2016-Dec-04 05:33N 39°35' W 075°35'0 0.0
2016-Dec-04 04:33N 39°35' W 075°35'0 0.0
2016-Dec-04 03:33N 39°35' W 075°35'0 0.0
2016-Dec-04 02:33N 39°35' W 075°35'0 0.1
2016-Dec-04 01:33N 39°35' W 075°35'9 8.7
2016-Dec-04 00:33N 39°43' W 075°31'0 0.3
2016-Dec-03 23:33N 39°43' W 075°31'0 0.0
2016-Dec-03 22:33N 39°43' W 075°31'0 0.0
2016-Dec-03 21:33N 39°43' W 075°31'0 0.0
2016-Dec-03 20:33N 39°43' W 075°31'0 0.0
2016-Dec-03 19:33N 39°43' W 075°31'0 0.0
2016-Dec-03 18:33N 39°43' W 075°31'0 0.0
2016-Dec-03 17:33N 39°43' W 075°31'0 0.0
2016-Dec-03 16:33N 39°43' W 075°31'0 0.0
2016-Dec-03 15:33N 39°43' W 075°31'0 0.0
2016-Dec-03 14:33N 39°43' W 075°31'0 0.0
2016-Dec-03 13:33N 39°43' W 075°31'0 0.1
2016-Dec-03 12:33N 39°43' W 075°31'0 0.0
2016-Dec-03 11:33N 39°43' W 075°31'0 0.0
2016-Dec-03 10:33N 39°43' W 075°31'0 0.0
2016-Dec-03 09:33N 39°43' W 075°31'0 0.0
2016-Dec-03 08:33N 39°43' W 075°31'0 0.0
2016-Dec-03 07:33N 39°43' W 075°31'0 0.0
2016-Dec-03 06:33N 39°43' W 075°31'0 0.0
2016-Dec-03 05:33N 39°43' W 075°31'0 0.0
2016-Dec-03 04:33N 39°43' W 075°31'4 3.9
2016-Dec-03 03:33N 39°39' W 075°33'5 4.8
2016-Dec-03 02:33N 39°35' W 075°35'0 0.1
2016-Dec-03 01:33N 39°35' W 075°35'0 0.0
2016-Dec-03 00:33N 39°35' W 075°35'0 0.0
2016-Dec-02 23:33N 39°35' W 075°35'0 0.0
2016-Dec-02 22:33N 39°35' W 075°35'0 0.0
2016-Dec-02 21:33N 39°35' W 075°35'0 0.0
2016-Dec-02 20:33N 39°35' W 075°35'0 0.0
2016-Dec-02 19:33N 39°35' W 075°35'0 0.0
2016-Dec-02 18:33N 39°35' W 075°35'0 0.0
2016-Dec-02 17:33N 39°35' W 075°35'0 0.0
2016-Dec-02 16:33N 39°35' W 075°35'0 0.0
2016-Dec-02 15:33N 39°35' W 075°35'0 0.0
2016-Dec-02 14:33N 39°35' W 075°35'0 0.0
2016-Dec-02 13:33N 39°35' W 075°35'0 0.0
2016-Dec-02 12:33N 39°35' W 075°35'0 0.0
2016-Dec-02 11:33N 39°35' W 075°35'0 0.0
2016-Dec-02 10:33N 39°35' W 075°35'0 0.0
2016-Dec-02 09:33N 39°35' W 075°35'0 0.1
2016-Dec-02 08:33N 39°35' W 075°35'0 0.1
2016-Dec-02 07:33N 39°35' W 075°35'0 0.3
2016-Dec-02 06:33N 39°35' W 075°36'0 0.0
2016-Dec-02 05:34N 39°35' W 075°36'0 0.0
2016-Dec-02 04:33N 39°35' W 075°36'0 0.0
2016-Dec-02 03:33N 39°35' W 075°36'0 0.0
2016-Dec-02 02:33N 39°35' W 075°36'0 0.0
2016-Dec-02 01:33N 39°35' W 075°36'0 0.0
2016-Dec-02 00:33N 39°35' W 075°36'0 0.0
2016-Dec-01 23:33N 39°35' W 075°36'0 0.0
2016-Dec-01 22:33N 39°35' W 075°36'0 0.0
2016-Dec-01 21:33N 39°35' W 075°36'0 0.0
2016-Dec-01 20:33N 39°35' W 075°36'6 5.9
2016-Dec-01 19:33N 39°30' W 075°33'1211.5
2016-Dec-01 18:33N 39°20' W 075°25'1212.1
2016-Dec-01 17:34N 39°10' W 075°16'7 2.0
2016-Dec-01 14:04N 39°04' W 075°13'1010.4
2016-Dec-01 13:05N 39°13' W 075°18'612.4
2016-Dec-01 12:33N 39°18' W 075°23'1313.3
2016-Dec-01 11:33N 39°29' W 075°34'6 6.4
2016-Dec-01 10:33N 39°35' W 075°35'0 0.0
2016-Dec-01 09:33N 39°35' W 075°35'0 0.2
2016-Dec-01 08:33N 39°35' W 075°36'0 0.0
2016-Dec-01 07:33N 39°35' W 075°36'0 0.3
2016-Dec-01 06:33N 39°35' W 075°35'8 7.8
2016-Dec-01 05:33N 39°42' W 075°31'8 8.3
2016-Dec-01 04:33N 39°49' W 075°24'0 0.1
2016-Dec-01 03:33N 39°49' W 075°24'1 1.2
2016-Dec-01 02:33N 39°48' W 075°26'10 9.7
2016-Dec-01 01:34N 39°52' W 075°14'  

Dump ship's entire track history